createdAt,value
2022-12-11T00:04:13.722Z,186.51969
2022-12-11T00:09:14.688Z,186.51969
2022-12-11T00:14:15.625Z,186.51969
2022-12-11T00:19:16.565Z,187.47826
2022-12-11T00:24:17.527Z,186.51969
2022-12-11T00:29:18.476Z,186.51969
2022-12-11T00:34:19.487Z,186.51969
2022-12-11T00:39:20.467Z,186.51969
2022-12-11T00:44:21.400Z,185.56863
2022-12-11T00:49:22.357Z,185.56863
2022-12-11T00:54:23.249Z,186.51969
2022-12-11T00:59:24.196Z,187.47826
2022-12-11T01:04:25.135Z,187.47826
2022-12-11T01:09:26.051Z,186.51969
2022-12-11T01:14:26.989Z,186.51969
2022-12-11T01:19:27.986Z,186.51969
2022-12-11T01:24:28.992Z,186.51969
2022-12-11T01:29:29.949Z,185.56863
2022-12-11T01:34:30.926Z,185.56863
2022-12-11T01:39:31.881Z,185.56863
2022-12-11T01:44:32.803Z,185.56863
2022-12-11T01:49:33.716Z,185.56863
2022-12-11T01:54:34.645Z,185.56863
2022-12-11T01:59:35.576Z,184.625
2022-12-11T02:04:36.478Z,185.56863
2022-12-11T02:09:37.382Z,185.56863
2022-12-11T02:14:38.296Z,186.51969
2022-12-11T02:19:39.240Z,187.47826
2022-12-11T02:24:40.165Z,188.44444
2022-12-11T02:29:41.194Z,188.44444
2022-12-11T02:34:42.117Z,187.47826
2022-12-11T02:39:43.027Z,185.56863
2022-12-11T02:44:43.956Z,186.51969
2022-12-11T02:49:44.959Z,186.51969
2022-12-11T02:54:45.866Z,186.51969
2022-12-11T02:59:46.769Z,186.51969
2022-12-11T03:04:47.695Z,188.44444
2022-12-11T03:09:48.655Z,186.51969
2022-12-11T03:14:49.568Z,185.56863
2022-12-11T03:19:50.489Z,185.56863
2022-12-11T03:24:51.427Z,184.625
2022-12-11T03:29:52.358Z,184.625
2022-12-11T03:34:58.080Z,185.56863
2022-12-11T03:39:59.409Z,184.625
2022-12-11T03:45:00.330Z,184.625
2022-12-11T03:50:01.336Z,184.625
2022-12-11T03:55:02.296Z,185.56863
2022-12-11T04:00:03.293Z,185.56863
2022-12-11T04:05:04.162Z,186.51969
2022-12-11T04:10:05.089Z,186.51969
2022-12-11T04:15:06.054Z,185.56863
2022-12-11T04:20:07.088Z,185.56863
2022-12-11T04:25:08.417Z,185.56863
2022-12-11T04:30:09.501Z,186.51969
2022-12-11T04:35:10.632Z,186.51969
2022-12-11T04:40:11.770Z,186.51969
2022-12-11T04:45:13.026Z,187.47826
2022-12-11T04:50:14.202Z,187.47826
2022-12-11T04:55:15.103Z,186.51969
2022-12-11T05:00:16.031Z,186.51969
2022-12-11T05:05:16.901Z,187.47826
2022-12-11T05:10:17.878Z,189.41833
2022-12-11T05:15:18.788Z,188.44444
2022-12-11T05:20:19.678Z,188.44444
2022-12-11T05:25:20.626Z,187.47826
2022-12-11T05:30:21.608Z,186.51969
2022-12-11T05:35:22.520Z,186.51969
2022-12-11T05:40:30.011Z,189.41833
2022-12-11T05:45:31.581Z,189.41833
2022-12-11T05:50:32.512Z,189.41833
2022-12-11T05:55:33.438Z,187.47826
2022-12-11T06:00:36.194Z,187.47826
2022-12-11T06:05:37.320Z,188.44444
2022-12-11T06:10:38.278Z,190.4
2022-12-11T06:15:39.401Z,190.4
2022-12-11T06:20:40.343Z,194.4065
2022-12-11T06:25:41.307Z,194.4065
2022-12-11T06:30:42.200Z,197.49794
2022-12-11T06:35:43.101Z,200.66667
2022-12-11T06:40:44.030Z,198.54545
2022-12-11T06:45:45.040Z,200.66667
2022-12-11T06:50:45.988Z,199.60166
2022-12-11T06:55:46.916Z,200.66667
2022-12-11T07:00:47.902Z,200.66667
2022-12-11T07:05:48.899Z,202.82353
2022-12-11T07:10:49.852Z,206.12766
2022-12-11T07:15:50.810Z,203.91561
2022-12-11T07:20:51.778Z,200.66667
2022-12-11T07:25:52.734Z,199.60166
2022-12-11T07:30:53.676Z,201.74059
2022-12-11T07:35:55.085Z,201.74059
2022-12-11T07:40:56.244Z,202.82353
2022-12-11T07:45:57.193Z,202.82353
2022-12-11T07:50:58.160Z,201.74059
2022-12-11T07:55:59.089Z,200.66667
2022-12-11T08:01:00.105Z,199.60166
2022-12-11T08:06:01.361Z,201.74059
2022-12-11T08:11:02.520Z,207.24786
2022-12-11T08:16:03.449Z,212.99563
2022-12-11T08:21:04.362Z,214.17544
2022-12-11T08:26:05.321Z,208.37768
2022-12-11T08:31:06.287Z,208.37768
2022-12-11T08:36:07.232Z,207.24786
2022-12-11T08:41:08.187Z,214.17544
2022-12-11T08:46:09.160Z,212.99563
2022-12-11T08:51:10.086Z,211.82609
2022-12-11T08:56:11.008Z,210.66667
2022-12-11T09:01:12.325Z,212.99563
2022-12-11T09:06:13.437Z,214.17544
2022-12-11T09:11:14.393Z,211.82609
2022-12-11T09:16:15.345Z,208.37768
2022-12-11T09:21:16.302Z,210.66667
2022-12-11T09:26:17.283Z,208.37768
2022-12-11T09:31:18.311Z,208.37768
2022-12-11T09:36:19.225Z,206.12766
2022-12-11T09:41:20.154Z,208.37768
2022-12-11T09:46:24.504Z,207.24786
2022-12-11T09:51:25.877Z,203.91561
2022-12-11T09:56:26.894Z,200.66667
2022-12-11T10:01:27.910Z,207.24786
2022-12-11T10:06:28.986Z,208.37768
2022-12-11T10:11:29.984Z,205.01695
2022-12-11T10:16:30.902Z,202.82353
2022-12-11T10:21:31.855Z,205.01695
2022-12-11T10:26:32.839Z,200.66667
2022-12-11T10:31:34.050Z,201.74059
2022-12-11T10:36:35.045Z,202.82353
2022-12-11T10:41:36.045Z,202.82353
2022-12-11T10:46:37.075Z,200.66667
2022-12-11T10:51:44.202Z,201.74059
2022-12-11T10:56:45.236Z,202.82353
2022-12-11T11:01:46.217Z,200.66667
2022-12-11T11:06:47.222Z,201.74059
2022-12-11T11:11:48.195Z,199.60166
2022-12-11T11:16:49.134Z,198.54545
2022-12-11T11:21:50.075Z,197.49794
2022-12-11T11:32:05.838Z,196.45902
2022-12-11T11:37:06.799Z,196.45902
2022-12-11T11:42:07.753Z,195.42857
2022-12-11T11:47:08.849Z,197.49794
2022-12-11T11:52:09.809Z,198.54545
2022-12-11T11:57:10.723Z,197.49794
2022-12-11T12:02:11.650Z,195.42857
2022-12-11T12:07:12.668Z,195.42857
2022-12-11T12:12:13.623Z,194.4065
2022-12-11T12:17:14.592Z,192.3871
2022-12-11T12:22:15.563Z,192.3871
2022-12-11T12:27:49.917Z,191.38956
2022-12-11T12:32:51.313Z,191.38956
2022-12-11T12:37:52.269Z,191.38956
2022-12-11T12:42:53.270Z,190.4
2022-12-11T12:47:54.352Z,189.41833
2022-12-11T12:52:55.711Z,188.44444
2022-12-11T12:57:56.730Z,188.44444
2022-12-11T13:02:57.687Z,189.41833
2022-12-11T13:07:58.741Z,189.41833
2022-12-11T13:12:59.731Z,189.41833
2022-12-11T13:18:05.715Z,190.4
2022-12-11T13:23:06.648Z,190.4
2022-12-11T13:28:07.570Z,188.44444
2022-12-11T13:33:08.492Z,188.44444
2022-12-11T13:38:09.401Z,189.41833
2022-12-11T13:43:10.468Z,189.41833
2022-12-11T13:48:16.649Z,190.4
2022-12-11T13:53:17.827Z,191.38956
2022-12-11T13:58:18.731Z,190.4
2022-12-11T14:03:19.684Z,189.41833
2022-12-11T14:08:20.638Z,188.44444
2022-12-11T14:13:21.608Z,187.47826
2022-12-11T14:18:22.529Z,188.44444
2022-12-11T14:23:23.617Z,187.47826
2022-12-11T14:28:29.559Z,189.41833
2022-12-11T14:33:30.528Z,189.41833
2022-12-11T14:38:31.421Z,188.44444
2022-12-11T14:43:32.500Z,189.41833
2022-12-11T14:48:33.484Z,190.4
2022-12-11T14:53:34.521Z,188.44444
2022-12-11T14:58:35.448Z,187.47826
2022-12-11T15:03:36.425Z,186.51969
2022-12-11T15:08:37.368Z,187.47826
2022-12-11T15:13:38.282Z,187.47826
2022-12-11T15:18:39.324Z,188.44444
2022-12-11T15:23:40.237Z,188.44444
2022-12-11T15:28:41.152Z,188.44444
2022-12-11T15:33:42.068Z,187.47826
2022-12-11T15:38:43.020Z,187.47826
2022-12-11T15:43:44.011Z,187.47826
2022-12-11T15:48:44.970Z,186.51969
2022-12-11T15:53:45.982Z,186.51969
2022-12-11T15:58:46.980Z,185.56863
2022-12-11T16:03:47.865Z,185.56863
2022-12-11T16:08:48.795Z,185.56863
2022-12-11T16:13:49.736Z,186.51969
2022-12-11T16:18:50.605Z,186.51969
2022-12-11T16:23:51.568Z,186.51969
2022-12-11T16:28:52.569Z,184.625
2022-12-11T16:33:53.536Z,185.56863
2022-12-11T16:38:54.567Z,185.56863
2022-12-11T16:43:55.900Z,185.56863
2022-12-11T16:48:56.799Z,185.56863
2022-12-11T16:53:57.842Z,185.56863
2022-12-11T16:58:58.823Z,184.625
2022-12-11T17:03:59.752Z,184.625
2022-12-11T17:09:00.659Z,183.68872
2022-12-11T17:14:01.579Z,184.625
2022-12-11T17:19:02.626Z,184.625
2022-12-11T17:24:03.604Z,185.56863
2022-12-11T17:29:04.601Z,185.56863
2022-12-11T17:34:05.499Z,185.56863
2022-12-11T17:39:06.441Z,186.51969
2022-12-11T17:44:07.547Z,187.47826
2022-12-11T17:49:08.465Z,186.51969
2022-12-11T17:54:09.380Z,185.56863
2022-12-11T17:59:10.309Z,186.51969
2022-12-11T18:04:11.276Z,186.51969
2022-12-11T18:09:12.309Z,186.51969
2022-12-11T18:14:17.065Z,187.47826
2022-12-11T18:19:18.320Z,187.47826
2022-12-11T18:24:19.272Z,186.51969
2022-12-11T18:29:20.257Z,185.56863
2022-12-11T18:34:21.305Z,185.56863
2022-12-11T18:39:22.253Z,186.51969
2022-12-11T18:44:23.360Z,185.56863
2022-12-11T18:49:24.382Z,185.56863
2022-12-11T18:54:25.341Z,185.56863
2022-12-11T18:59:26.419Z,187.47826
2022-12-11T19:04:27.426Z,189.41833
2022-12-11T19:09:28.336Z,191.38956
2022-12-11T19:14:29.315Z,190.4
2022-12-11T19:19:30.372Z,189.41833
2022-12-11T19:24:31.327Z,188.44444
2022-12-11T19:29:32.280Z,186.51969
2022-12-11T19:34:33.276Z,187.47826
2022-12-11T19:39:34.283Z,187.47826
2022-12-11T19:44:35.235Z,187.47826
2022-12-11T19:49:36.181Z,186.51969
2022-12-11T19:54:37.218Z,187.47826
2022-12-11T19:59:38.252Z,187.47826
2022-12-11T20:04:39.218Z,187.47826
2022-12-11T20:09:40.112Z,188.44444
2022-12-11T20:14:41.003Z,188.44444
2022-12-11T20:19:42.032Z,188.44444
2022-12-11T20:24:43.070Z,186.51969
2022-12-11T20:29:44.127Z,187.47826
2022-12-11T20:34:45.237Z,188.44444
2022-12-11T20:39:46.266Z,188.44444
2022-12-11T20:44:49.021Z,187.47826
2022-12-11T20:49:50.719Z,187.47826
2022-12-11T20:54:51.757Z,187.47826
2022-12-11T20:59:52.677Z,187.47826
2022-12-11T21:04:53.625Z,187.47826
2022-12-11T21:09:54.525Z,187.47826
2022-12-11T21:14:55.662Z,186.51969
2022-12-11T21:19:56.904Z,186.51969
2022-12-11T21:24:57.838Z,186.51969
2022-12-11T21:29:58.817Z,186.51969
2022-12-11T21:34:59.946Z,186.51969
2022-12-11T21:40:00.865Z,185.56863
2022-12-11T21:50:38.430Z,186.51969
2022-12-11T21:55:39.365Z,186.51969
2022-12-11T22:00:40.309Z,186.51969
2022-12-11T22:05:41.243Z,185.56863
2022-12-11T22:10:42.196Z,184.625
2022-12-11T22:15:43.130Z,184.625
2022-12-11T22:20:44.033Z,184.625
2022-12-11T22:25:44.931Z,183.68872
2022-12-11T22:30:45.924Z,182.75969
2022-12-11T22:35:46.843Z,182.75969
2022-12-11T22:40:47.737Z,181.83784
2022-12-11T22:45:48.748Z,181.83784
2022-12-11T22:50:49.653Z,183.68872
2022-12-11T22:55:50.570Z,182.75969
2022-12-11T23:00:51.523Z,183.68872
2022-12-11T23:05:52.523Z,184.625
2022-12-11T23:10:53.494Z,185.56863
2022-12-11T23:15:54.440Z,184.625
2022-12-11T23:20:55.382Z,185.56863
2022-12-11T23:25:56.572Z,184.625
2022-12-11T23:30:57.577Z,183.68872
2022-12-11T23:35:58.641Z,183.68872
2022-12-11T23:40:59.542Z,183.68872
2022-12-11T23:46:00.544Z,185.56863
2022-12-11T23:51:01.695Z,187.47826
2022-12-11T23:56:02.584Z,188.44444
